sensor_id;sensor_type;location;lat;lon;timestamp;pressure;altitude;pressure_sealevel;temperature;humidity
44349;BME280;30068;50.986;4.564;2023-02-21T00:00:50;102229.88;;;19.67;52.65
44349;BME280;30068;50.986;4.564;2023-02-21T00:03:34;102223.47;;;19.68;52.39
44349;BME280;30068;50.986;4.564;2023-02-21T00:06:18;102214.63;;;19.66;51.94
44349;BME280;30068;50.986;4.564;2023-02-21T00:09:02;102228.34;;;19.64;52.05
44349;BME280;30068;50.986;4.564;2023-02-21T00:11:46;102244.03;;;19.61;52.71
44349;BME280;30068;50.986;4.564;2023-02-21T00:14:30;102253.88;;;19.62;52.21
44349;BME280;30068;50.986;4.564;2023-02-21T00:17:14;102253.16;;;19.60;52.57
44349;BME280;30068;50.986;4.564;2023-02-21T00:19:59;102251.31;;;19.60;53.18
44349;BME280;30068;50.986;4.564;2023-02-21T00:22:43;102237.78;;;19.60;53.10
44349;BME280;30068;50.986;4.564;2023-02-21T00:25:27;102234.91;;;19.62;52.66
44349;BME280;30068;50.986;4.564;2023-02-21T00:28:11;102227.94;;;19.59;52.64
44349;BME280;30068;50.986;4.564;2023-02-21T00:30:55;102224.38;;;19.59;52.74
44349;BME280;30068;50.986;4.564;2023-02-21T00:33:39;102238.94;;;19.58;52.98
44349;BME280;30068;50.986;4.564;2023-02-21T00:36:23;102243.31;;;19.59;52.67
44349;BME280;30068;50.986;4.564;2023-02-21T00:39:07;102251.78;;;19.56;53.14
44349;BME280;30068;50.986;4.564;2023-02-21T00:41:51;102250.19;;;19.53;53.30
44349;BME280;30068;50.986;4.564;2023-02-21T00:44:35;102246.50;;;19.54;53.29
44349;BME280;30068;50.986;4.564;2023-02-21T00:47:19;102240.22;;;19.54;52.98
44349;BME280;30068;50.986;4.564;2023-02-21T00:50:03;102230.41;;;19.53;52.92
44349;BME280;30068;50.986;4.564;2023-02-21T00:52:47;102225.97;;;19.52;52.85
44349;BME280;30068;50.986;4.564;2023-02-21T00:55:31;102223.44;;;19.50;53.05
44349;BME280;30068;50.986;4.564;2023-02-21T00:58:15;102239.84;;;19.49;52.87
44349;BME280;30068;50.986;4.564;2023-02-21T01:00:59;102237.28;;;19.47;53.05
44349;BME280;30068;50.986;4.564;2023-02-21T01:03:43;102248.09;;;19.47;53.14
44349;BME280;30068;50.986;4.564;2023-02-21T01:06:27;102237.28;;;19.47;53.35
44349;BME280;30068;50.986;4.564;2023-02-21T01:09:11;102235.56;;;19.46;53.12
44349;BME280;30068;50.986;4.564;2023-02-21T01:11:55;102227.56;;;19.45;53.55
44349;BME280;30068;50.986;4.564;2023-02-21T01:14:39;102216.75;;;19.45;53.29
44349;BME280;30068;50.986;4.564;2023-02-21T01:17:23;102211.47;;;19.43;53.47
44349;BME280;30068;50.986;4.564;2023-02-21T01:20:07;102209.78;;;19.42;53.66
44349;BME280;30068;50.986;4.564;2023-02-21T01:22:50;102218.75;;;19.43;53.44
44349;BME280;30068;50.986;4.564;2023-02-21T01:25:34;102229.72;;;19.41;53.37
44349;BME280;30068;50.986;4.564;2023-02-21T01:28:18;102230.56;;;19.42;53.23
44349;BME280;30068;50.986;4.564;2023-02-21T01:31:02;102226.16;;;19.41;53.61
44349;BME280;30068;50.986;4.564;2023-02-21T01:33:46;102214.63;;;19.39;53.61
44349;BME280;30068;50.986;4.564;2023-02-21T01:36:30;102212.94;;;19.38;53.63
44349;BME280;30068;50.986;4.564;2023-02-21T01:39:14;102208.53;;;19.37;53.66
44349;BME280;30068;50.986;4.564;2023-02-21T01:41:59;102217.63;;;19.36;53.78
44349;BME280;30068;50.986;4.564;2023-02-21T01:44:43;102217.63;;;19.36;53.49
44349;BME280;30068;50.986;4.564;2023-02-21T01:47:28;102228.47;;;19.36;53.58
44349;BME280;30068;50.986;4.564;2023-02-21T01:50:22;102220.50;;;19.34;53.71
44349;BME280;30068;50.986;4.564;2023-02-21T01:53:12;102222.34;;;19.33;53.87
44349;BME280;30068;50.986;4.564;2023-02-21T01:55:57;102224.06;;;19.34;54.34
44349;BME280;30068;50.986;4.564;2023-02-21T01:58:41;102217.91;;;19.32;54.33
44349;BME280;30068;50.986;4.564;2023-02-21T02:01:32;102207.09;;;19.32;54.43
44349;BME280;30068;50.986;4.564;2023-02-21T02:04:17;102208.09;;;19.31;54.16
44349;BME280;30068;50.986;4.564;2023-02-21T02:07:01;102209.81;;;19.32;53.93
44349;BME280;30068;50.986;4.564;2023-02-21T02:09:45;102204.56;;;19.31;54.04
44349;BME280;30068;50.986;4.564;2023-02-21T02:20:21;102203.00;;;19.28;54.28
44349;BME280;30068;50.986;4.564;2023-02-21T02:28:55;102182.47;;;19.26;54.58
44349;BME280;30068;50.986;4.564;2023-02-21T02:39:29;102196.34;;;19.23;54.63
44349;BME280;30068;50.986;4.564;2023-02-21T02:44:59;102184.66;;;19.22;54.53
44349;BME280;30068;50.986;4.564;2023-02-21T02:47:18;102182.94;;;19.21;54.72
44349;BME280;30068;50.986;4.564;2023-02-21T02:49:46;102177.53;;;19.21;54.48
44349;BME280;30068;50.986;4.564;2023-02-21T02:52:13;102175.81;;;19.20;54.36
44349;BME280;30068;50.986;4.564;2023-02-21T02:54:38;102165.84;;;19.21;54.49
44349;BME280;30068;50.986;4.564;2023-02-21T02:57:04;102163.28;;;19.19;54.56
44349;BME280;30068;50.986;4.564;2023-02-21T02:59:34;102174.13;;;19.19;54.05
44349;BME280;30068;50.986;4.564;2023-02-21T03:12:17;102158.72;;;19.20;54.97
44349;BME280;30068;50.986;4.564;2023-02-21T03:14:54;102157.19;;;19.17;54.63
44349;BME280;30068;50.986;4.564;2023-02-21T03:17:23;102154.50;;;19.17;54.67
44349;BME280;30068;50.986;4.564;2023-02-21T03:19:51;102142.81;;;19.17;54.92
44349;BME280;30068;50.986;4.564;2023-02-21T03:22:19;102141.97;;;19.16;54.72
44349;BME280;30068;50.986;4.564;2023-02-21T03:24:46;102137.53;;;19.15;54.72
44349;BME280;30068;50.986;4.564;2023-02-21T03:27:12;102137.53;;;19.15;54.84
44349;BME280;30068;50.986;4.564;2023-02-21T03:29:38;102140.25;;;19.15;54.66
44349;BME280;30068;50.986;4.564;2023-02-21T03:32:12;102142.25;;;19.13;54.96
44349;BME280;30068;50.986;4.564;2023-02-21T03:34:39;102145.66;;;19.15;55.17
44349;BME280;30068;50.986;4.564;2023-02-21T03:37:05;102140.25;;;19.15;55.15
44349;BME280;30068;50.986;4.564;2023-02-21T03:39:32;102135.69;;;19.16;55.01
44349;BME280;30068;50.986;4.564;2023-02-21T03:41:57;102141.09;;;19.16;54.93
44349;BME280;30068;50.986;4.564;2023-02-21T03:44:22;102142.63;;;19.18;54.81
44349;BME280;30068;50.986;4.564;2023-02-21T03:46:47;102140.97;;;19.17;54.97
44349;BME280;30068;50.986;4.564;2023-02-21T03:49:12;102136.38;;;19.18;54.80
44349;BME280;30068;50.986;4.564;2023-02-21T03:51:38;102141.84;;;19.08;55.12
44349;BME280;30068;50.986;4.564;2023-02-21T03:54:03;102138.53;;;19.14;55.03
44349;BME280;30068;50.986;4.564;2023-02-21T03:56:28;102131.13;;;19.16;54.74
44349;BME280;30068;50.986;4.564;2023-02-21T03:58:53;102131.13;;;19.16;55.08
44349;BME280;30068;50.986;4.564;2023-02-21T04:01:19;102136.53;;;19.16;54.82
44349;BME280;30068;50.986;4.564;2023-02-21T04:03:44;102140.97;;;19.17;54.84
44349;BME280;30068;50.986;4.564;2023-02-21T04:06:09;102133.84;;;19.16;54.86
44349;BME280;30068;50.986;4.564;2023-02-21T04:08:34;102133.13;;;19.14;55.00
44349;BME280;30068;50.986;4.564;2023-02-21T04:11:00;102137.41;;;19.17;54.97
44349;BME280;30068;50.986;4.564;2023-02-21T04:13:25;102136.53;;;19.16;54.79
44349;BME280;30068;50.986;4.564;2023-02-21T04:15:50;102124.31;;;19.12;55.06
44349;BME280;30068;50.986;4.564;2023-02-21T04:18:15;102135.84;;;19.14;55.06
44349;BME280;30068;50.986;4.564;2023-02-21T04:20:41;102141.25;;;19.14;54.82
44349;BME280;30068;50.986;4.564;2023-02-21T04:23:06;102133.13;;;19.14;54.82
44349;BME280;30068;50.986;4.564;2023-02-21T04:25:31;102128.84;;;19.12;54.79
44349;BME280;30068;50.986;4.564;2023-02-21T04:27:56;102129.72;;;19.12;54.87
44349;BME280;30068;50.986;4.564;2023-02-21T04:30:21;102128.19;;;19.10;55.01
44349;BME280;30068;50.986;4.564;2023-02-21T04:32:47;102131.16;;;19.07;55.03
44349;BME280;30068;50.986;4.564;2023-02-21T04:35:12;102137.19;;;19.01;55.25
44349;BME280;30068;50.986;4.564;2023-02-21T04:37:37;102127.81;;;18.95;55.35
44349;BME280;30068;50.986;4.564;2023-02-21T04:40:02;102129.34;;;18.98;55.56
44349;BME280;30068;50.986;4.564;2023-02-21T04:42:28;102121.94;;;19.00;55.50
44349;BME280;30068;50.986;4.564;2023-02-21T04:44:53;102120.09;;;19.00;55.47
44349;BME280;30068;50.986;4.564;2023-02-21T04:47:18;102123.94;;;18.98;55.57
44349;BME280;30068;50.986;4.564;2023-02-21T04:49:43;102120.09;;;19.00;55.72
44349;BME280;30068;50.986;4.564;2023-02-21T04:52:15;102121.66;;;19.03;55.54
44349;BME280;30068;50.986;4.564;2023-02-21T04:54:40;102119.81;;;19.03;55.78
44349;BME280;30068;50.986;4.564;2023-02-21T04:57:05;102119.25;;;19.00;56.06
44349;BME280;30068;50.986;4.564;2023-02-21T04:59:31;102122.09;;;18.98;56.00
44349;BME280;30068;50.986;4.564;2023-02-21T05:01:56;102109.84;;;19.04;55.87
44349;BME280;30068;50.986;4.564;2023-02-21T05:04:21;102114.78;;;19.08;55.90
44349;BME280;30068;50.986;4.564;2023-02-21T05:06:46;102117.19;;;19.11;55.88
44349;BME280;30068;50.986;4.564;2023-02-21T05:09:11;102125.28;;;19.11;55.65
44349;BME280;30068;50.986;4.564;2023-02-21T05:11:37;102113.78;;;19.09;55.91
44349;BME280;30068;50.986;4.564;2023-02-21T05:14:02;102119.22;;;19.09;56.16
44349;BME280;30068;50.986;4.564;2023-02-21T05:16:28;102124.88;;;19.16;55.84
44349;BME280;30068;50.986;4.564;2023-02-21T05:18:53;102116.44;;;19.19;55.59
44349;BME280;30068;50.986;4.564;2023-02-21T05:21:18;102121.41;;;19.23;55.93
44349;BME280;30068;50.986;4.564;2023-02-21T05:23:44;102121.09;;;19.26;55.75
44349;BME280;30068;50.986;4.564;2023-02-21T05:26:20;102122.41;;;19.22;55.67
44349;BME280;30068;50.986;4.564;2023-02-21T05:28:45;102122.56;;;19.21;55.71
44349;BME280;30068;50.986;4.564;2023-02-21T05:31:10;102122.25;;;19.24;55.55
44349;BME280;30068;50.986;4.564;2023-02-21T05:33:36;102113.69;;;19.28;55.57
44349;BME280;30068;50.986;4.564;2023-02-21T05:36:01;102113.34;;;19.31;55.52
44349;BME280;30068;50.986;4.564;2023-02-21T05:38:26;102115.06;;;19.32;55.38
44349;BME280;30068;50.986;4.564;2023-02-21T05:40:51;102117.34;;;19.37;55.38
44349;BME280;30068;50.986;4.564;2023-02-21T05:43:17;102109.38;;;19.36;55.21
44349;BME280;30068;50.986;4.564;2023-02-21T05:45:42;102108.50;;;19.35;55.60
44349;BME280;30068;50.986;4.564;2023-02-21T05:48:08;102109.66;;;19.32;55.67
44349;BME280;30068;50.986;4.564;2023-02-21T05:50:33;102106.34;;;19.39;55.45
44349;BME280;30068;50.986;4.564;2023-02-21T05:52:58;102098.22;;;19.39;55.44
44349;BME280;30068;50.986;4.564;2023-02-21T05:55:24;102104.19;;;19.42;55.47
44349;BME280;30068;50.986;4.564;2023-02-21T05:57:49;102097.63;;;19.45;55.50
44349;BME280;30068;50.986;4.564;2023-02-21T06:00:15;102097.19;;;19.49;55.34
44349;BME280;30068;50.986;4.564;2023-02-21T06:02:40;102099.56;;;19.52;55.18
44349;BME280;30068;50.986;4.564;2023-02-21T06:05:06;102100.75;;;19.50;55.19
44349;BME280;30068;50.986;4.564;2023-02-21T06:07:31;102094.78;;;19.46;55.53
44349;BME280;30068;50.986;4.564;2023-02-21T06:09:56;102093.03;;;19.45;55.49
44349;BME280;30068;50.986;4.564;2023-02-21T06:12:21;102098.19;;;19.48;55.37
44349;BME280;30068;50.986;4.564;2023-02-21T06:14:47;102091.63;;;19.51;55.47
44349;BME280;30068;50.986;4.564;2023-02-21T06:17:12;102087.59;;;19.55;55.21
44349;BME280;30068;50.986;4.564;2023-02-21T06:19:37;102095.72;;;19.55;55.06
44349;BME280;30068;50.986;4.564;2023-02-21T06:22:02;102088.13;;;19.58;55.26
44349;BME280;30068;50.986;4.564;2023-02-21T06:24:27;102090.53;;;19.61;55.10
44349;BME280;30068;50.986;4.564;2023-02-21T06:26:53;102097.09;;;19.59;55.30
44349;BME280;30068;50.986;4.564;2023-02-21T06:29:18;102101.13;;;19.55;55.65
44349;BME280;30068;50.986;4.564;2023-02-21T06:31:43;102094.72;;;19.56;55.24
44349;BME280;30068;50.986;4.564;2023-02-21T06:34:08;102089.84;;;19.59;55.12
44349;BME280;30068;50.986;4.564;2023-02-21T06:36:34;102092.41;;;19.61;55.44
44349;BME280;30068;50.986;4.564;2023-02-21T06:38:59;102090.53;;;19.61;55.18
44349;BME280;30068;50.986;4.564;2023-02-21T06:41:26;102093.63;;;19.66;55.21
44349;BME280;30068;50.986;4.564;2023-02-21T06:43:52;102100.47;;;19.70;55.02
44349;BME280;30068;50.986;4.564;2023-02-21T06:46:18;102096.91;;;19.70;55.19
44349;BME280;30068;50.986;4.564;2023-02-21T06:48:44;102099.22;;;19.65;55.42
44349;BME280;30068;50.986;4.564;2023-02-21T06:51:09;102097.66;;;19.62;55.42
44349;BME280;30068;50.986;4.564;2023-02-21T06:53:35;102098.91;;;19.68;55.17
44349;BME280;30068;50.986;4.564;2023-02-21T06:56:00;102106.03;;;19.69;55.10
44349;BME280;30068;50.986;4.564;2023-02-21T06:58:26;102108.41;;;19.72;55.24
44349;BME280;30068;50.986;4.564;2023-02-21T07:00:51;102107.25;;;19.75;54.80
44349;BME280;30068;50.986;4.564;2023-02-21T07:03:16;102109.81;;;19.76;55.01
44349;BME280;30068;50.986;4.564;2023-02-21T07:05:41;102101.34;;;19.79;54.75
44349;BME280;30068;50.986;4.564;2023-02-21T07:08:07;102107.47;;;19.81;54.84
44349;BME280;30068;50.986;4.564;2023-02-21T07:10:33;102105.47;;;19.83;54.74
44349;BME280;30068;50.986;4.564;2023-02-21T07:12:58;102102.63;;;19.85;54.64
44349;BME280;30068;50.986;4.564;2023-02-21T07:15:23;102107.00;;;19.86;54.53
44349;BME280;30068;50.986;4.564;2023-02-21T07:17:48;102109.56;;;19.87;54.71
44349;BME280;30068;50.986;4.564;2023-02-21T07:20:14;102113.97;;;19.88;54.93
44349;BME280;30068;50.986;4.564;2023-02-21T07:22:39;102113.13;;;19.88;54.64
44349;BME280;30068;50.986;4.564;2023-02-21T07:25:04;102111.97;;;19.90;54.90
44349;BME280;30068;50.986;4.564;2023-02-21T07:27:30;102110.97;;;19.91;54.63
44349;BME280;30068;50.986;4.564;2023-02-21T07:29:55;102106.56;;;19.90;54.25
44349;BME280;30068;50.986;4.564;2023-02-21T07:32:20;102110.97;;;19.91;54.49
44349;BME280;30068;50.986;4.564;2023-02-21T07:34:46;102107.56;;;19.89;54.56
44349;BME280;30068;50.986;4.564;2023-02-21T07:37:11;102110.97;;;19.91;54.52
44349;BME280;30068;50.986;4.564;2023-02-21T07:39:37;102113.69;;;19.91;54.62
44349;BME280;30068;50.986;4.564;2023-02-21T07:42:02;102111.97;;;19.90;54.50
44349;BME280;30068;50.986;4.564;2023-02-21T07:44:28;102116.41;;;19.91;54.34
44349;BME280;30068;50.986;4.564;2023-02-21T07:46:56;102113.84;;;19.90;54.29
44349;BME280;30068;50.986;4.564;2023-02-21T07:49:22;102114.69;;;19.90;54.06
44349;BME280;30068;50.986;4.564;2023-02-21T07:51:47;102112.13;;;19.89;53.98
44349;BME280;30068;50.986;4.564;2023-02-21T07:54:12;102113.97;;;19.88;54.51
44349;BME280;30068;50.986;4.564;2023-02-21T07:56:44;102117.69;;;19.87;54.21
44349;BME280;30068;50.986;4.564;2023-02-21T07:59:09;102113.28;;;19.86;54.30
44349;BME280;30068;50.986;4.564;2023-02-21T08:01:34;102115.13;;;19.86;54.22
44349;BME280;30068;50.986;4.564;2023-02-21T08:03:59;102121.59;;;19.85;54.65
44349;BME280;30068;50.986;4.564;2023-02-21T08:06:25;102116.31;;;19.83;54.41
44349;BME280;30068;50.986;4.564;2023-02-21T08:08:50;102119.03;;;19.83;54.19
44349;BME280;30068;50.986;4.564;2023-02-21T08:11:15;102122.88;;;19.81;54.15
44349;BME280;30068;50.986;4.564;2023-02-21T08:13:40;102124.75;;;19.80;53.98
44349;BME280;30068;50.986;4.564;2023-02-21T08:16:06;102119.66;;;19.77;54.07
44349;BME280;30068;50.986;4.564;2023-02-21T08:18:31;102122.34;;;19.77;54.20
44349;BME280;30068;50.986;4.564;2023-02-21T08:20:56;102113.53;;;19.75;54.48
44349;BME280;30068;50.986;4.564;2023-02-21T08:23:21;102122.66;;;19.74;54.32
44349;BME280;30068;50.986;4.564;2023-02-21T08:25:47;102121.13;;;19.71;54.68
44349;BME280;30068;50.986;4.564;2023-02-21T08:28:12;102121.13;;;19.71;54.22
44349;BME280;30068;50.986;4.564;2023-02-21T08:30:38;102118.56;;;19.70;54.23
44349;BME280;30068;50.986;4.564;2023-02-21T08:33:03;102115.00;;;19.69;54.41
44349;BME280;30068;50.986;4.564;2023-02-21T08:35:28;102119.56;;;19.69;54.61
44349;BME280;30068;50.986;4.564;2023-02-21T08:37:53;102112.44;;;19.68;54.59
44349;BME280;30068;50.986;4.564;2023-02-21T08:40:26;102113.44;;;19.67;54.41
44349;BME280;30068;50.986;4.564;2023-02-21T08:42:52;102114.44;;;19.66;54.47
44349;BME280;30068;50.986;4.564;2023-02-21T08:45:18;102115.47;;;19.65;54.39
44349;BME280;30068;50.986;4.564;2023-02-21T08:47:45;102112.06;;;19.63;54.88
44349;BME280;30068;50.986;4.564;2023-02-21T08:50:10;102110.19;;;19.63;54.77
44349;BME280;30068;50.986;4.564;2023-02-21T08:52:35;102108.97;;;19.58;55.13
44349;BME280;30068;50.986;4.564;2023-02-21T08:55:01;102115.38;;;19.57;54.68
44349;BME280;30068;50.986;4.564;2023-02-21T08:57:26;102120.09;;;19.55;55.01
44349;BME280;30068;50.986;4.564;2023-02-21T08:59:51;102111.69;;;19.58;55.27
44349;BME280;30068;50.986;4.564;2023-02-21T09:02:18;102112.69;;;19.57;55.34
44349;BME280;30068;50.986;4.564;2023-02-21T09:04:43;102118.38;;;19.54;55.38
44349;BME280;30068;50.986;4.564;2023-02-21T09:07:10;102114.28;;;19.50;55.48
44349;BME280;30068;50.986;4.564;2023-02-21T09:09:36;102111.25;;;19.53;55.51
44349;BME280;30068;50.986;4.564;2023-02-21T09:12:01;102107.25;;;19.57;55.38
44349;BME280;30068;50.986;4.564;2023-02-21T09:14:27;102105.22;;;19.59;55.37
44349;BME280;30068;50.986;4.564;2023-02-21T09:16:52;102104.38;;;19.58;55.41
44349;BME280;30068;50.986;4.564;2023-02-21T09:19:17;102107.56;;;19.54;55.20
44349;BME280;30068;50.986;4.564;2023-02-21T09:21:45;102102.84;;;19.56;55.04
44349;BME280;30068;50.986;4.564;2023-02-21T09:24:11;102107.78;;;19.60;55.38
44349;BME280;30068;50.986;4.564;2023-02-21T09:26:36;102103.94;;;19.63;55.10
44349;BME280;30068;50.986;4.564;2023-02-21T09:29:01;102110.06;;;19.65;55.23
44349;BME280;30068;50.986;4.564;2023-02-21T09:31:27;102102.22;;;19.62;55.14
44349;BME280;30068;50.986;4.564;2023-02-21T09:33:52;102103.22;;;19.61;55.02
44349;BME280;30068;50.986;4.564;2023-02-21T09:36:17;102099.81;;;19.59;54.90
44349;BME280;30068;50.986;4.564;2023-02-21T09:38:48;102096.66;;;19.63;55.10
44349;BME280;30068;50.986;4.564;2023-02-21T09:41:13;102095.47;;;19.66;54.97
44349;BME280;30068;50.986;4.564;2023-02-21T09:43:40;102094.34;;;19.68;54.63
44349;BME280;30068;50.986;4.564;2023-02-21T09:46:12;102088.63;;;19.71;54.70
44349;BME280;30068;50.986;4.564;2023-02-21T09:48:39;102090.16;;;19.74;54.67
44349;BME280;30068;50.986;4.564;2023-02-21T09:51:05;102076.94;;;19.71;55.12
44349;BME280;30068;50.986;4.564;2023-02-21T09:53:36;102084.66;;;19.66;55.30
44349;BME280;30068;50.986;4.564;2023-02-21T09:56:04;102078.94;;;19.69;54.81
44349;BME280;30068;50.986;4.564;2023-02-21T09:58:29;102078.47;;;19.73;54.92
44349;BME280;30068;50.986;4.564;2023-02-21T10:00:56;102077.47;;;19.75;54.73
44349;BME280;30068;50.986;4.564;2023-02-21T10:03:25;102075.97;;;19.80;54.77
44349;BME280;30068;50.986;4.564;2023-02-21T10:06:08;102086.50;;;19.83;54.67
44349;BME280;30068;50.986;4.564;2023-02-21T10:08:38;102080.94;;;19.85;54.58
44349;BME280;30068;50.986;4.564;2023-02-21T10:13:50;102079.53;;;19.81;55.02
44349;BME280;30068;50.986;4.564;2023-02-21T10:16:20;102080.88;;;19.77;54.67
44349;BME280;30068;50.986;4.564;2023-02-21T10:21:39;102086.50;;;19.83;54.72
44349;BME280;30068;50.986;4.564;2023-02-21T10:24:24;102088.22;;;19.84;54.77
44349;BME280;30068;50.986;4.564;2023-02-21T10:29:25;102073.34;;;19.88;54.57
44349;BME280;30068;50.986;4.564;2023-02-21T10:31:54;102080.16;;;19.92;54.46
44349;BME280;30068;50.986;4.564;2023-02-21T10:34:22;102079.13;;;19.93;54.40
44349;BME280;30068;50.986;4.564;2023-02-21T10:36:48;102074.41;;;19.95;54.40
44349;BME280;30068;50.986;4.564;2023-02-21T10:39:16;102076.13;;;19.96;54.36
44349;BME280;30068;50.986;4.564;2023-02-21T10:41:41;102074.13;;;19.98;54.45
44349;BME280;30068;50.986;4.564;2023-02-21T10:44:15;102062.44;;;19.98;54.44
44349;BME280;30068;50.986;4.564;2023-02-21T10:46:43;102069.00;;;19.95;54.39
44349;BME280;30068;50.986;4.564;2023-02-21T10:49:32;102070.16;;;19.93;54.55
44349;BME280;30068;50.986;4.564;2023-02-21T10:54:29;102066.84;;;19.01;48.63
44349;BME280;30068;50.986;4.564;2023-02-21T10:56:54;102068.91;;;19.34;49.08
44349;BME280;30068;50.986;4.564;2023-02-21T10:59:24;102076.28;;;19.42;49.58
44349;BME280;30068;50.986;4.564;2023-02-21T11:01:51;102071.56;;;19.44;50.44
44349;BME280;30068;50.986;4.564;2023-02-21T11:06:54;102069.13;;;19.50;51.13
44349;BME280;30068;50.986;4.564;2023-02-21T11:09:28;102067.56;;;19.48;51.79
44349;BME280;30068;50.986;4.564;2023-02-21T11:14:26;102059.16;;;19.51;52.04
44349;BME280;30068;50.986;4.564;2023-02-21T11:17:33;102063.38;;;19.53;52.58
44349;BME280;30068;50.986;4.564;2023-02-21T11:19:43;102062.22;;;19.56;52.46
44349;BME280;30068;50.986;4.564;2023-02-21T11:22:09;102047.69;;;19.57;52.79
44349;BME280;30068;50.986;4.564;2023-02-21T11:24:43;102047.06;;;19.63;52.99
44349;BME280;30068;50.986;4.564;2023-02-21T11:27:09;102048.44;;;19.67;52.91
44349;BME280;30068;50.986;4.564;2023-02-21T11:29:36;102042.72;;;19.70;52.86
44349;BME280;30068;50.986;4.564;2023-02-21T11:32:08;102037.84;;;19.73;53.32
44349;BME280;30068;50.986;4.564;2023-02-21T11:34:34;102034.28;;;19.73;53.33
44349;BME280;30068;50.986;4.564;2023-02-21T11:37:02;102042.72;;;19.70;53.43
44349;BME280;30068;50.986;4.564;2023-02-21T11:39:32;102036.13;;;19.72;53.31
44349;BME280;30068;50.986;4.564;2023-02-21T11:42:01;102030.25;;;19.77;53.12
44349;BME280;30068;50.986;4.564;2023-02-21T11:44:40;102025.50;;;19.79;53.54
44349;BME280;30068;50.986;4.564;2023-02-21T11:49:59;102024.06;;;19.85;53.49
44349;BME280;30068;50.986;4.564;2023-02-21T11:55:01;102013.44;;;19.91;53.36
44349;BME280;30068;50.986;4.564;2023-02-21T12:02:41;102008.41;;;19.96;53.49
44349;BME280;30068;50.986;4.564;2023-02-21T12:08:04;102007.03;;;19.92;53.44
44349;BME280;30068;50.986;4.564;2023-02-21T12:26:33;101996.28;;;20.08;53.35
44349;BME280;30068;50.986;4.564;2023-02-21T12:29:13;101985.28;;;20.10;53.33
44349;BME280;30068;50.986;4.564;2023-02-21T12:31:49;101980.34;;;20.05;53.30
44349;BME280;30068;50.986;4.564;2023-02-21T12:37:27;101974.75;;;20.07;53.31
44349;BME280;30068;50.986;4.564;2023-02-21T12:47:51;101961.09;;;20.17;53.32
44349;BME280;30068;50.986;4.564;2023-02-21T12:50:20;101960.94;;;20.18;52.96
44349;BME280;30068;50.986;4.564;2023-02-21T12:53:06;101960.56;;;20.13;53.45
44349;BME280;30068;50.986;4.564;2023-02-21T13:00:42;101957.03;;;20.13;53.07
44349;BME280;30068;50.986;4.564;2023-02-21T13:05:43;101946.00;;;20.14;52.85
44349;BME280;30068;50.986;4.564;2023-02-21T13:08:14;101947.41;;;20.18;53.08
44349;BME280;30068;50.986;4.564;2023-02-21T13:13:14;101947.25;;;20.20;53.04
44349;BME280;30068;50.986;4.564;2023-02-21T13:15:42;101944.19;;;20.23;52.97
44349;BME280;30068;50.986;4.564;2023-02-21T13:20:43;101941.16;;;20.26;52.92
44349;BME280;30068;50.986;4.564;2023-02-21T13:23:11;101936.59;;;20.26;53.07
44349;BME280;30068;50.986;4.564;2023-02-21T13:26:18;101928.28;;;20.28;52.79
44349;BME280;30068;50.986;4.564;2023-02-21T13:28:50;101922.84;;;20.28;52.81
44349;BME280;30068;50.986;4.564;2023-02-21T13:31:17;101913.22;;;20.25;52.80
44349;BME280;30068;50.986;4.564;2023-02-21T13:33:43;101915.72;;;20.27;52.69
44349;BME280;30068;50.986;4.564;2023-02-21T13:36:19;101920.66;;;20.23;52.32
44349;BME280;30068;50.986;4.564;2023-02-21T13:38:45;101914.06;;;20.26;52.90
44349;BME280;30068;50.986;4.564;2023-02-21T13:41:11;101912.88;;;20.28;52.72
44349;BME280;30068;50.986;4.564;2023-02-21T13:43:48;101913.72;;;20.29;52.40
44349;BME280;30068;50.986;4.564;2023-02-21T13:51:49;101907.00;;;20.33;52.89
44349;BME280;30068;50.986;4.564;2023-02-21T13:54:23;101904.28;;;20.33;52.80
44349;BME280;30068;50.986;4.564;2023-02-21T13:56:49;101899.72;;;20.33;52.76
44349;BME280;30068;50.986;4.564;2023-02-21T13:59:29;101895.13;;;20.34;53.01
44349;BME280;30068;50.986;4.564;2023-02-21T14:02:17;101891.41;;;20.35;52.72
44349;BME280;30068;50.986;4.564;2023-02-21T14:04:49;101887.69;;;20.36;52.95
44349;BME280;30068;50.986;4.564;2023-02-21T14:07:14;101877.69;;;20.36;52.76
44349;BME280;30068;50.986;4.564;2023-02-21T14:09:40;101889.00;;;20.32;52.75
44349;BME280;30068;50.986;4.564;2023-02-21T14:12:06;101877.78;;;20.27;53.11
44349;BME280;30068;50.986;4.564;2023-02-21T14:14:34;101881.19;;;20.29;53.05
44349;BME280;30068;50.986;4.564;2023-02-21T14:19:33;101877.84;;;20.35;53.05
44349;BME280;30068;50.986;4.564;2023-02-21T14:22:03;101873.59;;;20.32;53.01
44349;BME280;30068;50.986;4.564;2023-02-21T14:24:36;101874.28;;;20.34;53.19
44349;BME280;30068;50.986;4.564;2023-02-21T14:29:41;101866.84;;;20.36;53.27
44349;BME280;30068;50.986;4.564;2023-02-21T14:37:02;101859.91;;;20.42;53.20
44349;BME280;30068;50.986;4.564;2023-02-21T14:39:42;101862.63;;;20.42;53.48
44349;BME280;30068;50.986;4.564;2023-02-21T14:45:03;101849.72;;;20.36;53.32
44349;BME280;30068;50.986;4.564;2023-02-21T14:47:39;101844.00;;;20.39;53.22
44349;BME280;30068;50.986;4.564;2023-02-21T14:53:04;101845.69;;;20.40;53.37
44349;BME280;30068;50.986;4.564;2023-02-21T14:55:38;101842.78;;;20.41;53.26
44349;BME280;30068;50.986;4.564;2023-02-21T15:03:15;101846.53;;;20.48;52.81
44349;BME280;30068;50.986;4.564;2023-02-21T15:06:23;101849.22;;;20.40;53.63
44349;BME280;30068;50.986;4.564;2023-02-21T15:08:38;101848.88;;;20.35;53.50
44349;BME280;30068;50.986;4.564;2023-02-21T15:11:03;101842.06;;;20.31;53.73
44349;BME280;30068;50.986;4.564;2023-02-21T15:13:38;101840.03;;;20.25;53.89
44349;BME280;30068;50.986;4.564;2023-02-21T15:16:05;101835.06;;;20.21;54.07